createdAt,value
2024-03-21T00:00:17.361Z,530.00
2024-03-21T00:01:17.353Z,528.00
2024-03-21T00:02:17.374Z,527.00
2024-03-21T00:03:17.463Z,525.00
2024-03-21T00:04:17.435Z,526.00
2024-03-21T00:05:17.490Z,526.00
2024-03-21T00:06:17.529Z,524.00
2024-03-21T00:07:17.587Z,524.00
2024-03-21T00:08:19.583Z,524.00
2024-03-21T00:09:17.603Z,523.00
2024-03-21T00:10:17.615Z,522.00
2024-03-21T00:11:17.622Z,522.00
2024-03-21T00:12:17.573Z,525.00
2024-03-21T00:13:17.622Z,524.00
2024-03-21T00:14:17.645Z,524.00
2024-03-21T00:15:17.583Z,523.00
2024-03-21T00:16:17.582Z,524.00
2024-03-21T00:17:17.679Z,523.00
2024-03-21T00:18:17.574Z,520.00
2024-03-21T00:19:17.616Z,518.00
2024-03-21T00:20:17.627Z,516.00
2024-03-21T00:21:17.594Z,515.00
2024-03-21T00:22:17.607Z,515.00
2024-03-21T00:23:17.631Z,515.00
2024-03-21T00:24:17.613Z,515.00
2024-03-21T00:25:17.619Z,514.00
2024-03-21T00:26:17.623Z,513.00
2024-03-21T00:27:17.596Z,513.00
2024-03-21T00:28:17.588Z,512.00
2024-03-21T00:29:17.644Z,513.00
2024-03-21T00:30:17.594Z,515.00
2024-03-21T00:31:17.615Z,517.00
2024-03-21T00:32:17.615Z,517.00
2024-03-21T00:33:17.599Z,517.00
2024-03-21T00:34:17.597Z,519.00
2024-03-21T00:35:17.625Z,518.00
2024-03-21T00:36:17.630Z,517.00
2024-03-21T00:37:17.635Z,516.00
2024-03-21T00:38:17.727Z,514.00
2024-03-21T00:39:17.626Z,516.00
2024-03-21T00:40:17.627Z,514.00
2024-03-21T00:41:17.630Z,515.00
2024-03-21T00:42:17.625Z,514.00
2024-03-21T00:43:17.585Z,515.00
2024-03-21T00:44:17.631Z,516.00
2024-03-21T00:45:17.584Z,517.00
2024-03-21T00:46:17.590Z,519.00
2024-03-21T00:47:17.665Z,521.00
2024-03-21T00:48:17.680Z,521.00
2024-03-21T00:49:17.783Z,521.00
2024-03-21T00:50:17.940Z,521.00
2024-03-21T00:51:17.835Z,522.00
2024-03-21T00:52:17.895Z,523.00
2024-03-21T00:53:17.944Z,522.00
2024-03-21T00:54:18.016Z,519.00
2024-03-21T00:55:18.001Z,518.00
2024-03-21T00:56:18.076Z,518.00
2024-03-21T00:57:18.125Z,519.00
2024-03-21T00:58:18.158Z,521.00
2024-03-21T00:59:18.238Z,521.00
2024-03-21T01:00:18.269Z,518.00
2024-03-21T01:01:18.300Z,519.00
2024-03-21T01:02:18.309Z,518.00
2024-03-21T01:03:18.354Z,516.00
2024-03-21T01:04:18.416Z,515.00
2024-03-21T01:05:18.447Z,515.00
2024-03-21T01:06:18.496Z,517.00
2024-03-21T01:07:18.535Z,517.00
2024-03-21T01:08:18.557Z,517.00
2024-03-21T01:09:18.615Z,515.00
2024-03-21T01:10:18.656Z,514.00
2024-03-21T01:11:18.770Z,511.00
2024-03-21T01:12:18.740Z,513.00
2024-03-21T01:13:18.810Z,509.00
2024-03-21T01:14:18.858Z,512.00
2024-03-21T01:15:18.865Z,513.00
2024-03-21T01:16:18.901Z,518.00
2024-03-21T01:17:18.950Z,518.00
2024-03-21T01:18:19.002Z,515.00
2024-03-21T01:19:19.090Z,518.00
2024-03-21T01:20:19.123Z,519.00
2024-03-21T01:21:19.212Z,521.00
2024-03-21T01:22:19.213Z,518.00
2024-03-21T01:23:19.268Z,516.00
2024-03-21T01:24:19.330Z,516.00
2024-03-21T01:25:19.398Z,516.00
2024-03-21T01:26:19.428Z,517.00
2024-03-21T01:27:21.668Z,516.00
2024-03-21T01:28:19.477Z,516.00
2024-03-21T01:29:19.467Z,516.00
2024-03-21T01:30:19.479Z,519.00
2024-03-21T01:31:19.477Z,520.00
2024-03-21T01:32:19.434Z,522.00
2024-03-21T01:33:19.447Z,522.00
2024-03-21T01:34:19.502Z,519.00
2024-03-21T01:35:19.466Z,519.00
2024-03-21T01:36:19.475Z,518.00
2024-03-21T01:37:19.456Z,514.00
2024-03-21T01:38:19.570Z,516.00
2024-03-21T01:39:19.457Z,516.00
2024-03-21T01:40:19.487Z,519.00
2024-03-21T01:41:19.483Z,523.00
2024-03-21T01:42:19.493Z,522.00
2024-03-21T01:43:19.463Z,519.00
2024-03-21T01:44:19.504Z,518.00
2024-03-21T01:45:19.479Z,518.00
2024-03-21T01:46:20.292Z,518.00
2024-03-21T01:47:19.473Z,516.00
2024-03-21T01:48:19.498Z,515.00
2024-03-21T01:49:19.495Z,514.00
2024-03-21T01:50:19.494Z,515.00
2024-03-21T01:51:19.511Z,513.00
2024-03-21T01:52:19.522Z,517.00
2024-03-21T01:53:19.497Z,517.00
2024-03-21T01:54:19.470Z,516.00
2024-03-21T01:55:19.513Z,519.00
2024-03-21T01:56:19.493Z,520.00
2024-03-21T01:57:19.495Z,520.00
2024-03-21T01:58:19.479Z,519.00
2024-03-21T01:59:19.501Z,518.00
2024-03-21T02:00:19.507Z,520.00
2024-03-21T02:01:19.485Z,521.00
2024-03-21T02:02:19.493Z,519.00
2024-03-21T02:03:19.534Z,518.00
2024-03-21T02:04:19.525Z,518.00
2024-03-21T02:05:19.534Z,516.00
2024-03-21T02:06:19.476Z,516.00
2024-03-21T02:07:19.517Z,516.00
2024-03-21T02:08:19.537Z,518.00
2024-03-21T02:09:20.296Z,520.00
2024-03-21T02:10:19.511Z,521.00
2024-03-21T02:11:19.556Z,520.00
2024-03-21T02:12:19.590Z,520.00
2024-03-21T02:13:19.684Z,516.00
2024-03-21T02:14:19.718Z,516.00
2024-03-21T02:15:19.778Z,516.00
2024-03-21T02:16:19.815Z,516.00
2024-03-21T02:17:19.889Z,514.00
2024-03-21T02:18:19.930Z,515.00
2024-03-21T02:19:20.010Z,515.00
2024-03-21T02:20:20.038Z,513.00
2024-03-21T02:21:20.145Z,509.00
2024-03-21T02:22:20.171Z,510.00
2024-03-21T02:23:20.243Z,511.00
2024-03-21T02:24:20.282Z,510.00
2024-03-21T02:25:20.366Z,512.00
2024-03-21T02:26:20.392Z,512.00
2024-03-21T02:27:20.513Z,513.00
2024-03-21T02:28:20.509Z,512.00
2024-03-21T02:29:20.585Z,513.00
2024-03-21T02:30:20.598Z,514.00
2024-03-21T02:31:20.659Z,516.00
2024-03-21T02:32:20.701Z,515.00
2024-03-21T02:33:20.753Z,515.00
2024-03-21T02:34:20.811Z,517.00
2024-03-21T02:35:20.869Z,518.00
2024-03-21T02:36:20.948Z,519.00
2024-03-21T02:37:21.000Z,519.00
2024-03-21T02:38:21.051Z,518.00
2024-03-21T02:39:21.094Z,518.00
2024-03-21T02:40:21.141Z,518.00
2024-03-21T02:41:21.174Z,517.00
2024-03-21T02:42:21.221Z,517.00
2024-03-21T02:43:21.236Z,517.00
2024-03-21T02:44:21.316Z,515.00
2024-03-21T02:45:21.337Z,514.00
2024-03-21T02:46:23.509Z,515.00
2024-03-21T02:47:21.431Z,514.00
2024-03-21T02:48:21.400Z,511.00
2024-03-21T02:49:21.858Z,512.00
2024-03-21T02:50:21.389Z,514.00
2024-03-21T02:51:21.384Z,513.00
2024-03-21T02:52:21.391Z,517.00
2024-03-21T02:53:21.398Z,516.00
2024-03-21T02:54:21.402Z,515.00
2024-03-21T02:55:21.411Z,516.00
2024-03-21T02:56:21.431Z,518.00
2024-03-21T02:57:21.456Z,519.00
2024-03-21T02:58:21.401Z,520.00
2024-03-21T02:59:21.471Z,521.00
2024-03-21T03:00:21.395Z,522.00
2024-03-21T03:01:21.401Z,521.00
2024-03-21T03:02:21.413Z,521.00
2024-03-21T03:03:21.419Z,521.00
2024-03-21T03:04:21.436Z,520.00
2024-03-21T03:05:21.439Z,519.00
2024-03-21T03:06:21.437Z,520.00
2024-03-21T03:07:21.503Z,520.00
2024-03-21T03:08:21.453Z,520.00
2024-03-21T03:09:21.458Z,517.00
2024-03-21T03:10:21.432Z,516.00
2024-03-21T03:11:21.418Z,517.00
2024-03-21T03:12:21.422Z,518.00
2024-03-21T03:13:21.434Z,517.00
2024-03-21T03:14:21.435Z,516.00
2024-03-21T03:15:21.450Z,517.00
2024-03-21T03:16:21.427Z,516.00
2024-03-21T03:17:21.490Z,516.00
2024-03-21T03:18:21.435Z,517.00
2024-03-21T03:19:21.480Z,515.00
2024-03-21T03:20:21.427Z,514.00
2024-03-21T03:21:21.448Z,514.00
2024-03-21T03:22:21.464Z,515.00
2024-03-21T03:23:21.483Z,512.00
2024-03-21T03:24:21.473Z,514.00
2024-03-21T03:25:21.498Z,515.00
2024-03-21T03:26:21.520Z,517.00
2024-03-21T03:27:21.632Z,518.00
2024-03-21T03:28:21.637Z,519.00
2024-03-21T03:29:21.693Z,520.00
2024-03-21T03:30:21.756Z,522.00
2024-03-21T03:31:21.809Z,523.00
2024-03-21T03:32:21.850Z,522.00
2024-03-21T03:33:21.887Z,524.00
2024-03-21T03:34:21.953Z,522.00
2024-03-21T03:35:21.994Z,522.00
2024-03-21T03:36:22.117Z,521.00
2024-03-21T03:37:22.160Z,519.00
2024-03-21T03:38:22.225Z,519.00
2024-03-21T03:39:22.250Z,519.00
2024-03-21T03:40:22.392Z,520.00
2024-03-21T03:41:22.359Z,519.00
2024-03-21T03:42:22.459Z,517.00
2024-03-21T03:43:22.460Z,520.00
2024-03-21T03:44:22.569Z,521.00
2024-03-21T03:45:22.591Z,521.00
2024-03-21T03:46:22.641Z,521.00
2024-03-21T03:47:22.697Z,519.00
2024-03-21T03:48:22.760Z,519.00
2024-03-21T03:49:22.812Z,518.00
2024-03-21T03:50:22.838Z,517.00
2024-03-21T03:51:22.925Z,516.00
2024-03-21T03:52:22.949Z,517.00
2024-03-21T03:53:23.042Z,519.00
2024-03-21T03:54:23.113Z,520.00
2024-03-21T03:55:23.164Z,521.00
2024-03-21T03:56:23.216Z,525.00
2024-03-21T03:57:23.276Z,524.00
2024-03-21T03:58:23.337Z,523.00
2024-03-21T03:59:23.389Z,525.00
2024-03-21T04:00:23.412Z,524.00
2024-03-21T04:01:23.502Z,525.00
2024-03-21T04:02:23.564Z,526.00
2024-03-21T04:03:23.617Z,529.00
2024-03-21T04:04:23.692Z,527.00
2024-03-21T04:05:23.709Z,527.00
2024-03-21T04:06:23.826Z,524.00
2024-03-21T04:07:23.864Z,522.00
2024-03-21T04:08:23.917Z,523.00
2024-03-21T04:09:23.969Z,525.00
2024-03-21T04:10:24.029Z,525.00
2024-03-21T04:11:24.080Z,527.00
2024-03-21T04:12:24.154Z,529.00
2024-03-21T04:13:24.200Z,531.00
2024-03-21T04:14:24.266Z,528.00
2024-03-21T04:15:24.313Z,527.00
2024-03-21T04:16:24.371Z,524.00
2024-03-21T04:17:24.433Z,521.00
2024-03-21T04:18:24.491Z,521.00
2024-03-21T04:19:24.533Z,522.00
2024-03-21T04:20:24.568Z,523.00
2024-03-21T04:21:24.632Z,527.00
2024-03-21T04:22:24.677Z,529.00
2024-03-21T04:23:24.756Z,530.00
2024-03-21T04:24:24.841Z,532.00
2024-03-21T04:25:24.903Z,532.00
2024-03-21T04:26:24.969Z,530.00
2024-03-21T04:27:25.009Z,529.00
2024-03-21T04:28:25.068Z,526.00
2024-03-21T04:29:25.130Z,525.00
2024-03-21T04:30:25.178Z,525.00
2024-03-21T04:31:25.852Z,524.00
2024-03-21T04:32:25.306Z,524.00
2024-03-21T04:33:25.358Z,526.00
2024-03-21T04:34:32.661Z,517.00
2024-03-21T04:35:32.618Z,517.00
2024-03-21T04:36:32.626Z,517.00
2024-03-21T04:37:32.611Z,514.00
2024-03-21T04:38:45.403Z,514.00
2024-03-21T04:39:33.631Z,513.00
2024-03-21T04:40:32.627Z,510.00
2024-03-21T04:41:32.647Z,509.00
2024-03-21T04:42:32.637Z,509.00
2024-03-21T04:43:32.613Z,510.00
2024-03-21T04:44:32.647Z,511.00
2024-03-21T04:45:32.641Z,512.00
2024-03-21T04:46:32.640Z,510.00
2024-03-21T04:47:32.632Z,510.00
2024-03-21T04:48:32.627Z,509.00
2024-03-21T04:49:32.665Z,510.00
2024-03-21T04:50:32.704Z,511.00
2024-03-21T04:51:32.762Z,513.00
2024-03-21T04:52:32.816Z,513.00
2024-03-21T04:53:32.892Z,511.00
2024-03-21T04:54:32.930Z,511.00
2024-03-21T04:55:33.027Z,512.00
2024-03-21T04:56:33.048Z,510.00
2024-03-21T04:57:33.159Z,509.00
2024-03-21T04:58:33.158Z,511.00
2024-03-21T04:59:33.232Z,513.00
2024-03-21T05:00:33.288Z,510.00
2024-03-21T05:01:33.355Z,511.00
2024-03-21T05:02:33.451Z,512.00
2024-03-21T05:03:33.473Z,514.00
2024-03-21T05:04:33.532Z,515.00
2024-03-21T05:05:33.583Z,515.00
2024-03-21T05:06:33.667Z,514.00
2024-03-21T05:07:33.738Z,514.00
2024-03-21T05:08:33.762Z,515.00
2024-03-21T05:09:33.849Z,514.00
2024-03-21T05:10:33.911Z,515.00
2024-03-21T05:11:34.023Z,515.00
2024-03-21T05:12:34.084Z,514.00
2024-03-21T05:13:34.135Z,514.00
2024-03-21T05:14:34.200Z,512.00
2024-03-21T05:15:34.256Z,511.00
2024-03-21T05:16:34.359Z,514.00
2024-03-21T05:17:34.445Z,513.00
2024-03-21T05:18:34.475Z,516.00
2024-03-21T05:19:34.562Z,516.00
2024-03-21T05:20:34.599Z,517.00
2024-03-21T05:21:34.701Z,519.00
2024-03-21T05:22:34.737Z,520.00
2024-03-21T05:23:34.794Z,518.00
2024-03-21T05:24:34.857Z,518.00
2024-03-21T05:25:34.901Z,517.00
2024-03-21T05:26:35.000Z,515.00
2024-03-21T05:27:35.022Z,516.00
2024-03-21T05:28:35.113Z,518.00
2024-03-21T05:29:35.178Z,518.00
2024-03-21T05:30:35.218Z,519.00
2024-03-21T05:31:35.311Z,519.00
2024-03-21T05:32:35.340Z,519.00
2024-03-21T05:33:35.440Z,519.00
2024-03-21T05:34:35.489Z,522.00
2024-03-21T05:35:35.528Z,522.00
2024-03-21T05:36:35.604Z,522.00
2024-03-21T05:37:35.662Z,522.00
2024-03-21T05:38:35.727Z,525.00
2024-03-21T05:39:35.794Z,525.00
2024-03-21T05:40:35.832Z,522.00
2024-03-21T05:41:35.917Z,520.00
2024-03-21T05:42:35.947Z,523.00
2024-03-21T05:43:36.030Z,524.00
2024-03-21T05:44:36.144Z,526.00
2024-03-21T05:45:36.156Z,525.00
2024-03-21T05:46:36.251Z,526.00
2024-03-21T05:47:36.273Z,526.00
2024-03-21T05:48:36.318Z,526.00
2024-03-21T05:49:36.382Z,524.00
2024-03-21T05:50:36.440Z,527.00
2024-03-21T05:51:36.514Z,534.00
2024-03-21T05:52:36.548Z,539.00
2024-03-21T05:53:36.667Z,543.00
2024-03-21T05:54:36.702Z,544.00
2024-03-21T05:55:36.752Z,549.00
2024-03-21T05:56:36.829Z,554.00
2024-03-21T05:57:36.871Z,558.00
2024-03-21T05:58:36.909Z,560.00
2024-03-21T05:59:36.974Z,560.00
2024-03-21T06:00:36.975Z,560.00
2024-03-21T06:01:37.050Z,562.00
2024-03-21T06:02:37.189Z,563.00
2024-03-21T06:03:37.120Z,563.00
2024-03-21T06:04:37.148Z,561.00
2024-03-21T06:05:37.172Z,563.00
2024-03-21T06:06:37.201Z,564.00
2024-03-21T06:07:37.223Z,562.00
2024-03-21T06:08:37.272Z,560.00
2024-03-21T06:09:37.287Z,559.00
2024-03-21T06:10:37.320Z,558.00
2024-03-21T06:11:37.335Z,559.00
2024-03-21T06:12:37.376Z,558.00
2024-03-21T06:13:37.356Z,557.00
2024-03-21T06:14:37.396Z,557.00
2024-03-21T06:15:39.880Z,558.00
2024-03-21T06:16:37.553Z,557.00
2024-03-21T06:17:37.583Z,557.00
2024-03-21T06:18:37.597Z,559.00
2024-03-21T06:19:37.605Z,557.00
2024-03-21T06:20:37.651Z,556.00
2024-03-21T06:21:39.289Z,555.00
2024-03-21T06:22:37.628Z,552.00
2024-03-21T06:23:37.631Z,553.00
2024-03-21T06:24:37.648Z,553.00
2024-03-21T06:25:37.657Z,549.00
2024-03-21T06:26:37.661Z,545.00
2024-03-21T06:27:37.655Z,544.00
2024-03-21T06:28:37.665Z,543.00
2024-03-21T06:29:37.640Z,545.00
2024-03-21T06:30:37.646Z,548.00
2024-03-21T06:31:37.642Z,548.00
2024-03-21T06:32:37.661Z,545.00
2024-03-21T06:33:37.663Z,544.00
2024-03-21T06:34:37.670Z,544.00
2024-03-21T06:35:37.735Z,545.00
2024-03-21T06:36:37.682Z,554.00
2024-03-21T06:37:37.644Z,565.00
2024-03-21T06:38:37.668Z,563.00
2024-03-21T06:39:37.670Z,568.00
2024-03-21T06:40:37.653Z,603.00
2024-03-21T06:41:37.655Z,612.00
2024-03-21T06:42:37.660Z,606.00
2024-03-21T06:43:37.672Z,601.00
2024-03-21T06:44:37.692Z,600.00
2024-03-21T06:45:37.672Z,604.00
2024-03-21T06:46:37.691Z,661.00
2024-03-21T06:47:37.705Z,653.00
2024-03-21T06:48:37.658Z,645.00
2024-03-21T06:49:37.692Z,639.00
2024-03-21T06:50:38.270Z,742.00
2024-03-21T06:51:37.676Z,728.00
2024-03-21T06:52:37.677Z,706.00
2024-03-21T06:53:37.693Z,697.00
2024-03-21T06:54:37.708Z,703.00
2024-03-21T06:55:37.697Z,708.00
2024-03-21T06:56:37.655Z,713.00
2024-03-21T06:57:37.682Z,721.00
2024-03-21T06:58:37.683Z,725.00
2024-03-21T06:59:37.689Z,726.00
2024-03-21T07:00:37.677Z,722.00
2024-03-21T07:01:37.699Z,721.00
2024-03-21T07:02:37.848Z,718.00
2024-03-21T07:03:37.690Z,714.00
2024-03-21T07:04:37.698Z,714.00
2024-03-21T07:05:37.688Z,709.00
2024-03-21T07:06:37.696Z,706.00
2024-03-21T07:07:37.691Z,703.00
2024-03-21T07:08:37.669Z,699.00
2024-03-21T07:09:37.703Z,697.00
2024-03-21T07:10:37.723Z,692.00
2024-03-21T07:11:37.670Z,692.00
2024-03-21T07:12:37.680Z,691.00
2024-03-21T07:13:37.698Z,692.00
2024-03-21T07:14:37.708Z,694.00
2024-03-21T07:15:37.699Z,693.00
2024-03-21T07:16:39.119Z,691.00
2024-03-21T07:17:37.678Z,692.00
2024-03-21T07:18:37.698Z,693.00
2024-03-21T07:19:37.706Z,691.00
2024-03-21T07:20:37.717Z,691.00
2024-03-21T07:21:37.718Z,693.00
2024-03-21T07:22:37.695Z,693.00
2024-03-21T07:23:37.714Z,694.00
2024-03-21T07:24:37.743Z,692.00
2024-03-21T07:25:37.708Z,692.00
2024-03-21T07:26:37.708Z,691.00
2024-03-21T07:27:37.721Z,689.00
2024-03-21T07:28:37.729Z,686.00
2024-03-21T07:29:37.736Z,687.00
2024-03-21T07:30:37.752Z,687.00
2024-03-21T07:31:37.714Z,685.00
2024-03-21T07:32:37.716Z,686.00
2024-03-21T07:33:37.756Z,686.00
2024-03-21T07:34:37.736Z,687.00
2024-03-21T07:35:37.708Z,689.00
2024-03-21T07:36:37.754Z,697.00
2024-03-21T07:37:37.758Z,710.00
2024-03-21T07:38:37.730Z,709.00
2024-03-21T07:39:37.779Z,708.00
2024-03-21T07:40:37.754Z,705.00
2024-03-21T07:41:37.725Z,704.00
2024-03-21T07:42:37.721Z,703.00
2024-03-21T07:43:37.743Z,699.00
2024-03-21T07:44:37.780Z,722.00
2024-03-21T07:45:37.761Z,718.00
2024-03-21T07:46:37.742Z,744.00
2024-03-21T07:47:37.747Z,756.00
2024-03-21T07:48:37.774Z,830.00
2024-03-21T07:49:37.731Z,839.00
2024-03-21T07:50:37.732Z,932.00
2024-03-21T07:51:37.758Z,919.00
2024-03-21T07:52:37.760Z,914.00
2024-03-21T07:53:37.726Z,917.00
2024-03-21T07:54:37.864Z,960.00
2024-03-21T07:55:37.771Z,963.00
2024-03-21T07:56:37.765Z,905.00
2024-03-21T07:57:37.798Z,891.00
2024-03-21T07:58:37.743Z,883.00
2024-03-21T07:59:37.781Z,879.00
2024-03-21T08:00:37.790Z,880.00
2024-03-21T08:01:37.753Z,881.00
2024-03-21T08:02:37.767Z,887.00
2024-03-21T08:03:37.763Z,910.00
2024-03-21T08:04:37.765Z,922.00
2024-03-21T08:05:37.765Z,922.00
2024-03-21T08:06:37.769Z,921.00
2024-03-21T08:07:37.806Z,919.00
2024-03-21T08:08:37.766Z,918.00
2024-03-21T08:09:37.795Z,914.00
2024-03-21T08:10:37.832Z,915.00
2024-03-21T08:11:37.798Z,911.00
2024-03-21T08:12:37.818Z,912.00
2024-03-21T08:13:37.790Z,904.00
2024-03-21T08:14:37.806Z,910.00
2024-03-21T08:15:37.870Z,909.00
2024-03-21T08:16:37.872Z,903.00
2024-03-21T08:17:39.051Z,893.00
2024-03-21T08:18:37.819Z,891.00
2024-03-21T08:19:37.784Z,896.00
2024-03-21T08:20:37.834Z,895.00
2024-03-21T08:21:37.778Z,897.00
2024-03-21T08:22:37.777Z,901.00
2024-03-21T08:23:37.812Z,900.00
2024-03-21T08:24:37.773Z,901.00
2024-03-21T08:25:37.822Z,904.00
2024-03-21T08:26:37.854Z,906.00
2024-03-21T08:27:37.926Z,905.00
2024-03-21T08:28:37.936Z,909.00
2024-03-21T08:29:37.943Z,917.00
2024-03-21T08:30:38.001Z,923.00
2024-03-21T08:31:38.018Z,923.00
2024-03-21T08:32:38.083Z,928.00
2024-03-21T08:33:38.046Z,937.00
2024-03-21T08:34:38.106Z,942.00
2024-03-21T08:35:38.061Z,935.00
2024-03-21T08:36:38.055Z,922.00
2024-03-21T08:37:38.053Z,913.00
2024-03-21T08:38:38.071Z,904.00
2024-03-21T08:39:38.151Z,900.00
2024-03-21T08:40:38.101Z,912.00
2024-03-21T08:41:38.121Z,981.00
2024-03-21T08:42:38.177Z,998.00
2024-03-21T08:43:38.230Z,997.00
2024-03-21T08:44:38.124Z,986.00
2024-03-21T08:45:38.148Z,1023.00
2024-03-21T08:46:38.182Z,999.00
2024-03-21T08:47:38.182Z,976.00
2024-03-21T08:48:38.289Z,965.00
2024-03-21T08:49:38.244Z,954.00
2024-03-21T08:50:38.278Z,944.00
2024-03-21T08:51:38.379Z,937.00
2024-03-21T08:52:38.339Z,930.00
2024-03-21T08:53:38.375Z,927.00
2024-03-21T08:54:38.405Z,921.00
2024-03-21T08:55:38.457Z,918.00
2024-03-21T08:56:38.480Z,917.00
2024-03-21T08:57:38.486Z,915.00
2024-03-21T08:58:38.525Z,915.00
2024-03-21T08:59:38.505Z,915.00
2024-03-21T09:00:38.514Z,917.00
2024-03-21T09:01:38.528Z,911.00
2024-03-21T09:02:38.548Z,904.00
2024-03-21T09:03:38.533Z,897.00
2024-03-21T09:04:38.570Z,891.00
2024-03-21T09:05:38.553Z,888.00
2024-03-21T09:06:38.571Z,884.00
2024-03-21T09:07:38.597Z,880.00
2024-03-21T09:08:38.626Z,881.00
2024-03-21T09:09:38.601Z,880.00
2024-03-21T09:10:38.594Z,878.00
2024-03-21T09:11:38.611Z,874.00
2024-03-21T09:12:38.598Z,872.00
2024-03-21T09:13:38.666Z,871.00
2024-03-21T09:14:38.658Z,865.00
2024-03-21T09:15:38.695Z,861.00
2024-03-21T09:16:38.726Z,859.00
2024-03-21T09:17:38.812Z,859.00
2024-03-21T09:18:39.333Z,856.00
2024-03-21T09:19:38.856Z,855.00
2024-03-21T09:20:38.905Z,855.00
2024-03-21T09:21:38.940Z,855.00
2024-03-21T09:22:39.003Z,858.00
2024-03-21T09:23:39.047Z,862.00
2024-03-21T09:24:39.120Z,861.00
2024-03-21T09:25:39.299Z,861.00
2024-03-21T09:26:39.192Z,863.00
2024-03-21T09:27:39.309Z,862.00
2024-03-21T09:28:39.357Z,862.00
2024-03-21T09:29:39.851Z,861.00
2024-03-21T09:30:39.488Z,864.00
2024-03-21T09:31:39.543Z,859.00
2024-03-21T09:32:39.631Z,855.00
2024-03-21T09:33:39.794Z,851.00
2024-03-21T09:34:39.746Z,852.00
2024-03-21T09:35:39.759Z,856.00
2024-03-21T09:36:39.833Z,911.00
2024-03-21T09:37:39.821Z,1029.00
2024-03-21T09:38:39.880Z,1020.00
2024-03-21T09:39:39.841Z,1002.00
2024-03-21T09:40:39.880Z,1002.00
2024-03-21T09:41:39.992Z,1016.00
2024-03-21T09:42:40.035Z,1028.00
2024-03-21T09:43:40.184Z,1064.00
2024-03-21T09:44:40.147Z,1074.00
2024-03-21T09:45:40.363Z,1067.00
2024-03-21T09:46:40.331Z,1077.00
2024-03-21T09:47:40.406Z,1088.00
2024-03-21T09:48:41.078Z,1049.00
2024-03-21T09:49:40.522Z,1041.00
2024-03-21T09:50:40.546Z,1094.00
2024-03-21T09:51:41.355Z,1115.00
2024-03-21T09:52:40.684Z,1127.00
2024-03-21T09:53:40.737Z,1118.00
2024-03-21T09:54:40.811Z,1052.00
2024-03-21T09:55:40.854Z,1035.00
2024-03-21T09:56:40.942Z,1047.00
2024-03-21T09:57:40.966Z,1048.00
2024-03-21T09:58:41.036Z,1049.00
2024-03-21T09:59:41.101Z,1052.00
2024-03-21T10:00:41.160Z,1053.00
2024-03-21T10:01:41.234Z,1056.00
2024-03-21T10:02:41.327Z,1052.00
2024-03-21T10:03:41.329Z,1051.00
2024-03-21T10:04:41.389Z,1053.00
2024-03-21T10:05:41.487Z,1046.00
2024-03-21T10:06:41.512Z,1037.00
2024-03-21T10:07:41.593Z,1032.00
2024-03-21T10:08:41.651Z,1027.00
2024-03-21T10:09:41.723Z,1022.00
2024-03-21T10:10:41.800Z,1015.00
2024-03-21T10:11:41.852Z,1009.00
2024-03-21T10:12:41.905Z,995.00
2024-03-21T10:13:41.947Z,984.00
2024-03-21T10:14:42.060Z,976.00
2024-03-21T10:15:42.080Z,971.00
2024-03-21T10:16:42.152Z,966.00
2024-03-21T10:17:42.212Z,963.00
2024-03-21T10:18:42.586Z,956.00
2024-03-21T10:19:42.345Z,947.00
2024-03-21T10:20:42.447Z,940.00
2024-03-21T10:21:42.498Z,931.00
2024-03-21T10:22:42.570Z,927.00
2024-03-21T10:23:42.623Z,922.00
2024-03-21T10:24:42.710Z,917.00
2024-03-21T10:25:42.753Z,915.00
2024-03-21T10:26:42.797Z,912.00
2024-03-21T10:27:42.868Z,906.00
2024-03-21T10:28:42.891Z,908.00
2024-03-21T10:29:42.898Z,905.00
2024-03-21T10:30:42.915Z,903.00
2024-03-21T10:31:42.983Z,900.00
2024-03-21T10:32:43.000Z,902.00
2024-03-21T10:33:43.044Z,901.00
2024-03-21T10:34:43.148Z,898.00
2024-03-21T10:35:43.175Z,894.00
2024-03-21T10:36:43.259Z,889.00
2024-03-21T10:37:43.293Z,882.00
2024-03-21T10:38:43.381Z,880.00
2024-03-21T10:39:43.479Z,881.00
2024-03-21T10:40:43.534Z,882.00
2024-03-21T10:41:43.544Z,891.00
2024-03-21T10:42:43.796Z,909.00
2024-03-21T10:43:43.591Z,1005.00
2024-03-21T10:44:43.710Z,1085.00
2024-03-21T10:45:43.713Z,1041.00
2024-03-21T10:46:43.763Z,1032.00
2024-03-21T10:47:43.860Z,1031.00
2024-03-21T10:48:43.876Z,1024.00
2024-03-21T10:49:43.981Z,1014.00
2024-03-21T10:50:44.038Z,1006.00
2024-03-21T10:51:44.095Z,1006.00
2024-03-21T10:52:44.146Z,1014.00
2024-03-21T10:53:44.219Z,1030.00
2024-03-21T10:54:44.286Z,1034.00
2024-03-21T10:55:44.371Z,1037.00
2024-03-21T10:56:44.438Z,1036.00
2024-03-21T10:57:44.506Z,1028.00
2024-03-21T10:58:45.682Z,1018.00
2024-03-21T10:59:44.602Z,1013.00
2024-03-21T11:00:44.671Z,1003.00
2024-03-21T11:01:44.837Z,994.00
2024-03-21T11:02:44.937Z,985.00
2024-03-21T11:03:44.856Z,972.00
2024-03-21T11:04:45.012Z,970.00
2024-03-21T11:05:44.980Z,968.00
2024-03-21T11:06:45.063Z,965.00
2024-03-21T11:07:45.115Z,957.00
2024-03-21T11:08:45.161Z,951.00
2024-03-21T11:09:45.376Z,947.00
2024-03-21T11:10:45.337Z,944.00
2024-03-21T11:11:45.441Z,937.00
2024-03-21T11:12:45.460Z,925.00
2024-03-21T11:13:45.631Z,920.00
2024-03-21T11:14:49.454Z,916.00
2024-03-21T11:15:45.550Z,912.00
2024-03-21T11:16:45.538Z,910.00
2024-03-21T11:17:45.550Z,906.00
2024-03-21T11:18:45.585Z,897.00
2024-03-21T11:19:45.692Z,889.00
2024-03-21T11:20:45.564Z,884.00
2024-03-21T11:21:45.576Z,879.00
2024-03-21T11:22:45.550Z,876.00
2024-03-21T11:23:45.598Z,869.00
2024-03-21T11:24:45.584Z,863.00
2024-03-21T11:25:45.632Z,856.00
2024-03-21T11:26:45.568Z,850.00
2024-03-21T11:27:45.582Z,848.00
2024-03-21T11:28:45.574Z,846.00
2024-03-21T11:29:45.639Z,838.00
2024-03-21T11:30:45.547Z,835.00
2024-03-21T11:31:45.562Z,840.00
2024-03-21T11:32:45.564Z,846.00
2024-03-21T11:33:45.584Z,845.00
2024-03-21T11:34:45.619Z,841.00
2024-03-21T11:35:45.570Z,824.00
2024-03-21T11:36:47.431Z,837.00
2024-03-21T11:37:45.568Z,844.00
2024-03-21T11:38:45.584Z,846.00
2024-03-21T11:39:45.583Z,847.00
2024-03-21T11:40:45.636Z,862.00
2024-03-21T11:41:45.562Z,870.00
2024-03-21T11:42:45.587Z,877.00
2024-03-21T11:43:45.573Z,879.00
2024-03-21T11:44:45.635Z,886.00
2024-03-21T11:45:45.588Z,894.00
2024-03-21T11:46:45.616Z,894.00
2024-03-21T11:47:45.599Z,891.00
2024-03-21T11:48:45.584Z,890.00
2024-03-21T11:49:45.593Z,888.00
2024-03-21T11:50:45.578Z,876.00
2024-03-21T11:51:45.600Z,880.00
2024-03-21T11:52:45.593Z,877.00
2024-03-21T11:53:45.586Z,872.00
2024-03-21T11:54:46.078Z,865.00
2024-03-21T11:55:45.602Z,861.00
2024-03-21T11:56:45.588Z,851.00
2024-03-21T11:57:45.595Z,838.00
2024-03-21T11:58:45.615Z,832.00
2024-03-21T11:59:45.626Z,827.00
2024-03-21T12:00:47.344Z,822.00
2024-03-21T12:01:45.589Z,816.00
2024-03-21T12:02:45.624Z,810.00
2024-03-21T12:03:45.677Z,805.00
2024-03-21T12:04:45.624Z,800.00
2024-03-21T12:05:45.644Z,799.00
2024-03-21T12:06:46.150Z,800.00
2024-03-21T12:07:45.681Z,802.00
2024-03-21T12:08:45.634Z,802.00
2024-03-21T12:09:45.776Z,802.00
2024-03-21T12:10:45.837Z,803.00
2024-03-21T12:11:45.669Z,810.00
2024-03-21T12:12:46.168Z,817.00
2024-03-21T12:13:45.667Z,817.00
2024-03-21T12:14:45.647Z,820.00
2024-03-21T12:15:45.672Z,819.00
2024-03-21T12:16:45.705Z,818.00
2024-03-21T12:17:45.641Z,812.00
2024-03-21T12:18:50.741Z,814.00
2024-03-21T12:19:46.659Z,814.00
2024-03-21T12:20:45.733Z,815.00
2024-03-21T12:21:45.649Z,815.00
2024-03-21T12:22:45.768Z,819.00
2024-03-21T12:23:45.688Z,821.00
2024-03-21T12:24:46.325Z,828.00
2024-03-21T12:25:45.708Z,834.00
2024-03-21T12:26:45.652Z,832.00